sensor_id;sensor_type;location;lat;lon;timestamp;P1;durP1;ratioP1;P2;durP2;ratioP2
20890;SDS011;10605;52.968;8.844;2023-08-30T00:01:00;5.18;;;4.78;;
20890;SDS011;10605;52.968;8.844;2023-08-30T00:03:25;4.75;;;4.35;;
20890;SDS011;10605;52.968;8.844;2023-08-30T00:05:51;6.95;;;5.20;;
20890;SDS011;10605;52.968;8.844;2023-08-30T00:08:16;4.60;;;4.30;;
20890;SDS011;10605;52.968;8.844;2023-08-30T00:10:44;6.07;;;4.82;;
20890;SDS011;10605;52.968;8.844;2023-08-30T00:13:11;5.78;;;5.38;;
20890;SDS011;10605;52.968;8.844;2023-08-30T00:15:37;5.38;;;5.05;;
20890;SDS011;10605;52.968;8.844;2023-08-30T00:18:02;5.15;;;4.85;;
20890;SDS011;10605;52.968;8.844;2023-08-30T00:20:29;5.55;;;5.15;;
20890;SDS011;10605;52.968;8.844;2023-08-30T00:22:54;5.60;;;5.30;;
20890;SDS011;10605;52.968;8.844;2023-08-30T00:25:20;5.80;;;5.35;;
20890;SDS011;10605;52.968;8.844;2023-08-30T00:27:46;6.40;;;5.90;;
20890;SDS011;10605;52.968;8.844;2023-08-30T00:30:11;5.35;;;4.95;;
20890;SDS011;10605;52.968;8.844;2023-08-30T00:32:37;5.38;;;5.00;;
20890;SDS011;10605;52.968;8.844;2023-08-30T00:35:03;4.68;;;4.28;;
20890;SDS011;10605;52.968;8.844;2023-08-30T00:37:29;4.30;;;4.07;;
20890;SDS011;10605;52.968;8.844;2023-08-30T00:39:54;5.15;;;4.63;;
20890;SDS011;10605;52.968;8.844;2023-08-30T00:42:20;4.40;;;4.05;;
20890;SDS011;10605;52.968;8.844;2023-08-30T00:44:46;4.93;;;4.63;;
20890;SDS011;10605;52.968;8.844;2023-08-30T00:47:11;4.85;;;4.45;;
20890;SDS011;10605;52.968;8.844;2023-08-30T00:49:37;5.22;;;4.30;;
20890;SDS011;10605;52.968;8.844;2023-08-30T00:52:06;4.90;;;4.50;;
20890;SDS011;10605;52.968;8.844;2023-08-30T00:54:34;5.50;;;5.00;;
20890;SDS011;10605;52.968;8.844;2023-08-30T00:57:01;4.97;;;4.68;;
20890;SDS011;10605;52.968;8.844;2023-08-30T00:59:27;4.68;;;4.38;;
20890;SDS011;10605;52.968;8.844;2023-08-30T01:01:55;5.90;;;5.40;;
20890;SDS011;10605;52.968;8.844;2023-08-30T01:04:21;6.45;;;6.00;;
20890;SDS011;10605;52.968;8.844;2023-08-30T01:06:48;7.18;;;6.57;;
20890;SDS011;10605;52.968;8.844;2023-08-30T01:09:14;6.20;;;5.75;;
20890;SDS011;10605;52.968;8.844;2023-08-30T01:14:30;6.95;;;6.55;;
20890;SDS011;10605;52.968;8.844;2023-08-30T01:17:10;6.75;;;6.22;;
20890;SDS011;10605;52.968;8.844;2023-08-30T01:19:50;7.82;;;5.97;;
20890;SDS011;10605;52.968;8.844;2023-08-30T01:27:55;5.78;;;5.38;;
20890;SDS011;10605;52.968;8.844;2023-08-30T01:30:22;6.10;;;5.53;;
20890;SDS011;10605;52.968;8.844;2023-08-30T01:32:52;5.70;;;5.30;;
20890;SDS011;10605;52.968;8.844;2023-08-30T01:35:18;6.82;;;6.22;;
20890;SDS011;10605;52.968;8.844;2023-08-30T01:37:45;7.28;;;5.63;;
20890;SDS011;10605;52.968;8.844;2023-08-30T01:40:11;6.50;;;6.10;;
20890;SDS011;10605;52.968;8.844;2023-08-30T01:42:38;10.52;;;6.25;;
20890;SDS011;10605;52.968;8.844;2023-08-30T01:45:05;6.05;;;5.55;;
20890;SDS011;10605;52.968;8.844;2023-08-30T01:47:36;6.57;;;6.10;;
20890;SDS011;10605;52.968;8.844;2023-08-30T01:50:02;5.75;;;5.35;;
20890;SDS011;10605;52.968;8.844;2023-08-30T01:52:28;6.72;;;5.95;;
20890;SDS011;10605;52.968;8.844;2023-08-30T01:54:55;7.20;;;6.50;;
20890;SDS011;10605;52.968;8.844;2023-08-30T01:57:23;7.07;;;6.47;;
20890;SDS011;10605;52.968;8.844;2023-08-30T01:59:48;7.35;;;6.88;;
20890;SDS011;10605;52.968;8.844;2023-08-30T02:02:14;8.40;;;7.78;;
20890;SDS011;10605;52.968;8.844;2023-08-30T02:04:40;8.57;;;7.97;;
20890;SDS011;10605;52.968;8.844;2023-08-30T02:07:20;7.85;;;7.35;;
20890;SDS011;10605;52.968;8.844;2023-08-30T02:12:26;8.10;;;7.60;;
20890;SDS011;10605;52.968;8.844;2023-08-30T02:14:58;9.65;;;8.63;;
20890;SDS011;10605;52.968;8.844;2023-08-30T02:17:26;9.68;;;8.90;;
20890;SDS011;10605;52.968;8.844;2023-08-30T02:19:52;15.32;;;10.73;;
20890;SDS011;10605;52.968;8.844;2023-08-30T02:22:18;13.30;;;12.00;;
20890;SDS011;10605;52.968;8.844;2023-08-30T02:24:44;14.27;;;13.10;;
20890;SDS011;10605;52.968;8.844;2023-08-30T02:27:10;15.15;;;13.75;;
20890;SDS011;10605;52.968;8.844;2023-08-30T02:29:35;14.75;;;13.27;;
20890;SDS011;10605;52.968;8.844;2023-08-30T02:32:01;15.45;;;13.95;;
20890;SDS011;10605;52.968;8.844;2023-08-30T02:34:27;15.80;;;14.35;;
20890;SDS011;10605;52.968;8.844;2023-08-30T02:36:52;15.88;;;14.23;;
20890;SDS011;10605;52.968;8.844;2023-08-30T02:39:18;17.20;;;15.50;;
20890;SDS011;10605;52.968;8.844;2023-08-30T02:41:44;17.58;;;15.52;;
20890;SDS011;10605;52.968;8.844;2023-08-30T02:44:13;17.80;;;16.20;;
20890;SDS011;10605;52.968;8.844;2023-08-30T02:46:38;18.35;;;16.33;;
20890;SDS011;10605;52.968;8.844;2023-08-30T02:49:04;18.92;;;17.15;;
20890;SDS011;10605;52.968;8.844;2023-08-30T02:51:31;19.98;;;16.35;;
20890;SDS011;10605;52.968;8.844;2023-08-30T02:53:56;17.35;;;15.70;;
20890;SDS011;10605;52.968;8.844;2023-08-30T02:56:22;20.17;;;18.10;;
20890;SDS011;10605;52.968;8.844;2023-08-30T02:58:48;22.88;;;18.17;;
20890;SDS011;10605;52.968;8.844;2023-08-30T03:01:13;18.23;;;16.60;;
20890;SDS011;10605;52.968;8.844;2023-08-30T03:03:39;17.70;;;16.20;;
20890;SDS011;10605;52.968;8.844;2023-08-30T03:06:05;20.20;;;16.95;;
20890;SDS011;10605;52.968;8.844;2023-08-30T03:08:30;20.65;;;17.33;;
20890;SDS011;10605;52.968;8.844;2023-08-30T03:11:07;21.55;;;19.25;;
20890;SDS011;10605;52.968;8.844;2023-08-30T03:13:36;24.02;;;20.85;;
20890;SDS011;10605;52.968;8.844;2023-08-30T03:16:09;22.00;;;19.75;;
20890;SDS011;10605;52.968;8.844;2023-08-30T03:18:36;25.05;;;19.70;;
20890;SDS011;10605;52.968;8.844;2023-08-30T03:21:02;22.95;;;19.80;;
20890;SDS011;10605;52.968;8.844;2023-08-30T03:23:27;22.17;;;19.25;;
20890;SDS011;10605;52.968;8.844;2023-08-30T03:25:53;21.60;;;19.48;;
20890;SDS011;10605;52.968;8.844;2023-08-30T03:28:19;20.65;;;18.55;;
20890;SDS011;10605;52.968;8.844;2023-08-30T03:30:44;20.70;;;18.70;;
20890;SDS011;10605;52.968;8.844;2023-08-30T03:33:10;19.75;;;17.75;;
20890;SDS011;10605;52.968;8.844;2023-08-30T03:35:37;19.90;;;17.55;;
20890;SDS011;10605;52.968;8.844;2023-08-30T03:38:10;19.27;;;17.63;;
20890;SDS011;10605;52.968;8.844;2023-08-30T03:40:39;18.65;;;17.05;;
20890;SDS011;10605;52.968;8.844;2023-08-30T03:46:46;20.38;;;18.42;;
20890;SDS011;10605;52.968;8.844;2023-08-30T03:49:24;21.50;;;19.17;;
20890;SDS011;10605;52.968;8.844;2023-08-30T03:52:12;21.25;;;19.38;;
20890;SDS011;10605;52.968;8.844;2023-08-30T03:55:03;20.70;;;18.73;;
20890;SDS011;10605;52.968;8.844;2023-08-30T03:57:41;23.00;;;20.10;;
20890;SDS011;10605;52.968;8.844;2023-08-30T04:00:10;24.42;;;20.92;;
20890;SDS011;10605;52.968;8.844;2023-08-30T04:02:41;24.88;;;22.15;;
20890;SDS011;10605;52.968;8.844;2023-08-30T04:05:14;22.95;;;20.73;;
20890;SDS011;10605;52.968;8.844;2023-08-30T04:07:43;24.42;;;22.02;;
20890;SDS011;10605;52.968;8.844;2023-08-30T04:10:11;24.60;;;21.10;;
20890;SDS011;10605;52.968;8.844;2023-08-30T04:12:44;23.67;;;21.35;;
20890;SDS011;10605;52.968;8.844;2023-08-30T04:15:09;24.77;;;21.85;;
20890;SDS011;10605;52.968;8.844;2023-08-30T04:17:55;25.58;;;22.98;;
20890;SDS011;10605;52.968;8.844;2023-08-30T04:20:44;27.23;;;23.90;;
20890;SDS011;10605;52.968;8.844;2023-08-30T04:23:10;26.98;;;24.13;;
20890;SDS011;10605;52.968;8.844;2023-08-30T04:25:44;28.95;;;25.20;;
20890;SDS011;10605;52.968;8.844;2023-08-30T04:28:10;27.42;;;24.63;;
20890;SDS011;10605;52.968;8.844;2023-08-30T04:31:01;32.50;;;25.30;;
20890;SDS011;10605;52.968;8.844;2023-08-30T04:33:29;29.27;;;26.10;;
20890;SDS011;10605;52.968;8.844;2023-08-30T04:36:02;33.70;;;25.10;;
20890;SDS011;10605;52.968;8.844;2023-08-30T04:38:44;28.80;;;25.80;;
20890;SDS011;10605;52.968;8.844;2023-08-30T04:41:33;29.83;;;26.65;;
20890;SDS011;10605;52.968;8.844;2023-08-30T04:44:11;29.40;;;26.13;;
20890;SDS011;10605;52.968;8.844;2023-08-30T04:46:44;30.05;;;26.85;;
20890;SDS011;10605;52.968;8.844;2023-08-30T04:49:12;28.48;;;25.67;;
20890;SDS011;10605;52.968;8.844;2023-08-30T04:51:45;32.53;;;26.75;;
20890;SDS011;10605;52.968;8.844;2023-08-30T04:54:10;28.63;;;25.65;;
20890;SDS011;10605;52.968;8.844;2023-08-30T04:56:39;29.73;;;26.73;;
20890;SDS011;10605;52.968;8.844;2023-08-30T04:59:13;28.58;;;25.77;;
20890;SDS011;10605;52.968;8.844;2023-08-30T05:01:40;29.25;;;23.90;;
20890;SDS011;10605;52.968;8.844;2023-08-30T05:04:11;26.98;;;24.02;;
20890;SDS011;10605;52.968;8.844;2023-08-30T05:06:40;29.30;;;24.25;;
20890;SDS011;10605;52.968;8.844;2023-08-30T05:12:09;25.73;;;23.10;;
20890;SDS011;10605;52.968;8.844;2023-08-30T05:14:47;25.15;;;22.48;;
20890;SDS011;10605;52.968;8.844;2023-08-30T05:17:12;25.90;;;23.27;;
20890;SDS011;10605;52.968;8.844;2023-08-30T05:23:11;24.58;;;21.95;;
20890;SDS011;10605;52.968;8.844;2023-08-30T05:25:50;25.40;;;22.77;;
20890;SDS011;10605;52.968;8.844;2023-08-30T05:28:26;23.73;;;21.52;;
20890;SDS011;10605;52.968;8.844;2023-08-30T05:31:03;23.83;;;20.92;;
20890;SDS011;10605;52.968;8.844;2023-08-30T05:33:40;23.90;;;21.30;;
20890;SDS011;10605;52.968;8.844;2023-08-30T05:39:19;22.80;;;20.60;;
20890;SDS011;10605;52.968;8.844;2023-08-30T05:41:45;22.30;;;20.10;;
20890;SDS011;10605;52.968;8.844;2023-08-30T05:44:27;23.20;;;21.00;;
20890;SDS011;10605;52.968;8.844;2023-08-30T05:47:12;23.20;;;20.98;;
20890;SDS011;10605;52.968;8.844;2023-08-30T05:49:44;22.42;;;20.10;;
20890;SDS011;10605;52.968;8.844;2023-08-30T05:58:12;20.35;;;18.25;;
20890;SDS011;10605;52.968;8.844;2023-08-30T06:00:42;19.75;;;17.92;;
20890;SDS011;10605;52.968;8.844;2023-08-30T06:03:15;19.58;;;17.77;;
20890;SDS011;10605;52.968;8.844;2023-08-30T06:08:43;17.60;;;16.00;;
20890;SDS011;10605;52.968;8.844;2023-08-30T06:11:52;17.60;;;15.90;;
20890;SDS011;10605;52.968;8.844;2023-08-30T06:46:57;15.55;;;12.93;;
20890;SDS011;10605;52.968;8.844;2023-08-30T06:49:28;13.73;;;12.57;;
20890;SDS011;10605;52.968;8.844;2023-08-30T07:22:15;10.25;;;9.23;;
20890;SDS011;10605;52.968;8.844;2023-08-30T07:25:34;11.07;;;9.95;;
20890;SDS011;10605;52.968;8.844;2023-08-30T07:28:46;9.88;;;8.98;;
20890;SDS011;10605;52.968;8.844;2023-08-30T07:35:08;9.70;;;8.98;;
20890;SDS011;10605;52.968;8.844;2023-08-30T07:37:42;10.38;;;9.48;;
20890;SDS011;10605;52.968;8.844;2023-08-30T07:40:12;8.65;;;7.93;;
20890;SDS011;10605;52.968;8.844;2023-08-30T07:42:47;9.23;;;8.40;;
20890;SDS011;10605;52.968;8.844;2023-08-30T07:52:21;7.93;;;7.25;;
20890;SDS011;10605;52.968;8.844;2023-08-30T07:59:17;8.80;;;8.07;;
20890;SDS011;10605;52.968;8.844;2023-08-30T08:06:02;8.25;;;7.43;;
20890;SDS011;10605;52.968;8.844;2023-08-30T08:08:48;9.38;;;6.55;;
20890;SDS011;10605;52.968;8.844;2023-08-30T08:12:03;7.05;;;6.47;;
20890;SDS011;10605;52.968;8.844;2023-08-30T08:15:13;8.20;;;7.40;;
20890;SDS011;10605;52.968;8.844;2023-08-30T08:24:57;7.63;;;6.93;;
20890;SDS011;10605;52.968;8.844;2023-08-30T08:27:34;7.13;;;6.50;;
20890;SDS011;10605;52.968;8.844;2023-08-30T08:30:15;7.43;;;6.70;;
20890;SDS011;10605;52.968;8.844;2023-08-30T08:35:56;6.82;;;6.22;;
20890;SDS011;10605;52.968;8.844;2023-08-30T08:38:29;8.57;;;6.60;;
20890;SDS011;10605;52.968;8.844;2023-08-30T08:44:05;6.25;;;5.75;;
20890;SDS011;10605;52.968;8.844;2023-08-30T08:46:45;6.30;;;5.90;;
20890;SDS011;10605;52.968;8.844;2023-08-30T08:52:15;7.40;;;6.80;;
20890;SDS011;10605;52.968;8.844;2023-08-30T08:55:15;7.20;;;6.05;;
20890;SDS011;10605;52.968;8.844;2023-08-30T08:57:55;7.10;;;6.60;;
20890;SDS011;10605;52.968;8.844;2023-08-30T09:00:33;7.55;;;6.18;;
20890;SDS011;10605;52.968;8.844;2023-08-30T09:03:14;10.82;;;6.70;;
20890;SDS011;10605;52.968;8.844;2023-08-30T09:05:49;7.35;;;6.65;;
20890;SDS011;10605;52.968;8.844;2023-08-30T09:08:19;8.30;;;6.70;;
20890;SDS011;10605;52.968;8.844;2023-08-30T09:10:59;8.55;;;7.78;;
20890;SDS011;10605;52.968;8.844;2023-08-30T09:14:01;10.65;;;7.65;;
20890;SDS011;10605;52.968;8.844;2023-08-30T09:16:56;7.57;;;6.82;;
20890;SDS011;10605;52.968;8.844;2023-08-30T09:19:25;7.10;;;6.50;;
20890;SDS011;10605;52.968;8.844;2023-08-30T09:21:55;7.43;;;6.68;;
20890;SDS011;10605;52.968;8.844;2023-08-30T09:24:24;7.07;;;6.45;;
20890;SDS011;10605;52.968;8.844;2023-08-30T09:26:51;9.50;;;7.50;;
20890;SDS011;10605;52.968;8.844;2023-08-30T09:29:18;7.93;;;7.18;;
20890;SDS011;10605;52.968;8.844;2023-08-30T09:31:51;10.27;;;8.85;;
20890;SDS011;10605;52.968;8.844;2023-08-30T09:34:29;9.77;;;8.57;;
20890;SDS011;10605;52.968;8.844;2023-08-30T09:36:55;12.00;;;8.40;;
20890;SDS011;10605;52.968;8.844;2023-08-30T09:39:26;9.23;;;8.52;;
20890;SDS011;10605;52.968;8.844;2023-08-30T09:41:55;13.45;;;8.48;;
20890;SDS011;10605;52.968;8.844;2023-08-30T09:44:21;9.52;;;8.68;;
20890;SDS011;10605;52.968;8.844;2023-08-30T09:46:56;11.02;;;8.85;;
20890;SDS011;10605;52.968;8.844;2023-08-30T09:49:26;9.75;;;8.80;;
20890;SDS011;10605;52.968;8.844;2023-08-30T09:51:52;10.07;;;9.18;;
20890;SDS011;10605;52.968;8.844;2023-08-30T09:54:31;14.88;;;10.43;;
20890;SDS011;10605;52.968;8.844;2023-08-30T09:57:03;10.75;;;9.10;;
20890;SDS011;10605;52.968;8.844;2023-08-30T09:59:30;11.05;;;9.88;;
20890;SDS011;10605;52.968;8.844;2023-08-30T10:02:03;11.43;;;9.57;;
20890;SDS011;10605;52.968;8.844;2023-08-30T10:04:33;11.32;;;9.85;;
20890;SDS011;10605;52.968;8.844;2023-08-30T10:07:02;11.27;;;10.13;;
20890;SDS011;10605;52.968;8.844;2023-08-30T10:09:40;16.30;;;10.75;;
20890;SDS011;10605;52.968;8.844;2023-08-30T10:12:10;11.35;;;10.25;;
20890;SDS011;10605;52.968;8.844;2023-08-30T10:14:50;13.65;;;10.07;;
20890;SDS011;10605;52.968;8.844;2023-08-30T10:20:09;9.52;;;8.20;;
20890;SDS011;10605;52.968;8.844;2023-08-30T10:22:38;12.02;;;8.90;;
20890;SDS011;10605;52.968;8.844;2023-08-30T10:25:18;8.02;;;7.28;;
20890;SDS011;10605;52.968;8.844;2023-08-30T10:27:56;12.25;;;8.02;;
20890;SDS011;10605;52.968;8.844;2023-08-30T10:30:31;8.82;;;8.02;;
20890;SDS011;10605;52.968;8.844;2023-08-30T10:33:11;8.98;;;8.07;;
20890;SDS011;10605;52.968;8.844;2023-08-30T10:35:46;9.65;;;7.38;;
20890;SDS011;10605;52.968;8.844;2023-08-30T10:38:28;11.82;;;8.45;;
20890;SDS011;10605;52.968;8.844;2023-08-30T10:41:11;8.48;;;7.53;;
20890;SDS011;10605;52.968;8.844;2023-08-30T10:43:44;9.63;;;7.80;;
20890;SDS011;10605;52.968;8.844;2023-08-30T10:46:28;9.77;;;6.70;;
20890;SDS011;10605;52.968;8.844;2023-08-30T10:49:12;8.38;;;7.47;;
20890;SDS011;10605;52.968;8.844;2023-08-30T10:51:41;8.02;;;7.22;;
20890;SDS011;10605;52.968;8.844;2023-08-30T10:54:15;8.23;;;7.53;;
20890;SDS011;10605;52.968;8.844;2023-08-30T10:56:57;8.07;;;7.40;;
20890;SDS011;10605;52.968;8.844;2023-08-30T10:59:25;9.15;;;7.32;;
20890;SDS011;10605;52.968;8.844;2023-08-30T11:02:00;9.80;;;7.68;;
20890;SDS011;10605;52.968;8.844;2023-08-30T11:07:58;8.43;;;6.57;;
20890;SDS011;10605;52.968;8.844;2023-08-30T11:10:29;7.30;;;6.50;;
20890;SDS011;10605;52.968;8.844;2023-08-30T11:16:27;8.45;;;7.65;;
20890;SDS011;10605;52.968;8.844;2023-08-30T11:19:04;10.82;;;7.75;;
20890;SDS011;10605;52.968;8.844;2023-08-30T11:24:56;7.82;;;7.03;;
20890;SDS011;10605;52.968;8.844;2023-08-30T11:28:02;11.73;;;7.57;;
20890;SDS011;10605;52.968;8.844;2023-08-30T11:30:46;9.50;;;8.60;;
20890;SDS011;10605;52.968;8.844;2023-08-30T11:33:12;8.50;;;7.28;;
20890;SDS011;10605;52.968;8.844;2023-08-30T11:35:40;10.82;;;7.10;;
20890;SDS011;10605;52.968;8.844;2023-08-30T11:38:09;8.43;;;7.50;;
20890;SDS011;10605;52.968;8.844;2023-08-30T11:40:40;9.15;;;7.43;;
20890;SDS011;10605;52.968;8.844;2023-08-30T11:43:14;7.80;;;7.10;;
20890;SDS011;10605;52.968;8.844;2023-08-30T11:45:55;6.45;;;5.95;;
20890;SDS011;10605;52.968;8.844;2023-08-30T11:48:47;8.32;;;6.13;;
20890;SDS011;10605;52.968;8.844;2023-08-30T11:51:17;9.30;;;6.60;;
20890;SDS011;10605;52.968;8.844;2023-08-30T11:53:44;6.78;;;6.18;;
20890;SDS011;10605;52.968;8.844;2023-08-30T11:56:13;7.53;;;6.35;;
20890;SDS011;10605;52.968;8.844;2023-08-30T11:58:39;10.32;;;7.13;;
20890;SDS011;10605;52.968;8.844;2023-08-30T12:01:08;7.25;;;6.55;;
20890;SDS011;10605;52.968;8.844;2023-08-30T12:04:14;9.57;;;6.38;;
20890;SDS011;10605;52.968;8.844;2023-08-30T12:06:50;6.97;;;6.03;;
20890;SDS011;10605;52.968;8.844;2023-08-30T12:09:32;6.32;;;5.70;;
20890;SDS011;10605;52.968;8.844;2023-08-30T12:12:16;7.05;;;5.18;;
20890;SDS011;10605;52.968;8.844;2023-08-30T12:14:42;7.05;;;4.65;;
20890;SDS011;10605;52.968;8.844;2023-08-30T12:17:16;5.25;;;4.82;;
20890;SDS011;10605;52.968;8.844;2023-08-30T12:19:42;5.30;;;4.80;;
20890;SDS011;10605;52.968;8.844;2023-08-30T12:25:29;8.48;;;5.05;;
20890;SDS011;10605;52.968;8.844;2023-08-30T12:27:55;8.48;;;5.85;;
20890;SDS011;10605;52.968;8.844;2023-08-30T12:30:33;5.90;;;5.10;;
20890;SDS011;10605;52.968;8.844;2023-08-30T12:33:04;6.88;;;6.18;;
20890;SDS011;10605;52.968;8.844;2023-08-30T12:35:33;8.32;;;5.57;;
20890;SDS011;10605;52.968;8.844;2023-08-30T12:38:11;6.80;;;5.78;;
20890;SDS011;10605;52.968;8.844;2023-08-30T12:40:45;6.15;;;5.55;;
20890;SDS011;10605;52.968;8.844;2023-08-30T12:43:17;8.57;;;5.20;;
20890;SDS011;10605;52.968;8.844;2023-08-30T12:45:48;9.07;;;5.82;;
20890;SDS011;10605;52.968;8.844;2023-08-30T12:48:17;9.02;;;6.03;;
20890;SDS011;10605;52.968;8.844;2023-08-30T12:50:51;6.05;;;5.22;;
20890;SDS011;10605;52.968;8.844;2023-08-30T12:53:30;6.38;;;5.80;;
20890;SDS011;10605;52.968;8.844;2023-08-30T12:56:01;6.85;;;5.22;;
20890;SDS011;10605;52.968;8.844;2023-08-30T12:58:35;5.70;;;5.30;;
20890;SDS011;10605;52.968;8.844;2023-08-30T13:01:16;11.05;;;5.57;;
20890;SDS011;10605;52.968;8.844;2023-08-30T13:06:46;6.20;;;5.30;;
20890;SDS011;10605;52.968;8.844;2023-08-30T13:09:16;9.32;;;5.68;;
20890;SDS011;10605;52.968;8.844;2023-08-30T13:11:47;6.47;;;5.20;;
20890;SDS011;10605;52.968;8.844;2023-08-30T13:14:17;5.90;;;5.35;;
20890;SDS011;10605;52.968;8.844;2023-08-30T13:16:43;6.35;;;5.75;;
20890;SDS011;10605;52.968;8.844;2023-08-30T13:19:15;6.60;;;6.00;;
20890;SDS011;10605;52.968;8.844;2023-08-30T13:21:41;6.15;;;4.75;;
20890;SDS011;10605;52.968;8.844;2023-08-30T13:24:07;7.60;;;5.70;;
20890;SDS011;10605;52.968;8.844;2023-08-30T13:26:36;11.00;;;6.82;;
20890;SDS011;10605;52.968;8.844;2023-08-30T13:29:09;7.45;;;5.30;;
20890;SDS011;10605;52.968;8.844;2023-08-30T13:31:40;6.90;;;6.20;;
20890;SDS011;10605;52.968;8.844;2023-08-30T13:34:16;9.32;;;6.65;;
20890;SDS011;10605;52.968;8.844;2023-08-30T13:36:55;7.18;;;6.50;;
20890;SDS011;10605;52.968;8.844;2023-08-30T13:39:26;6.78;;;6.28;;
20890;SDS011;10605;52.968;8.844;2023-08-30T13:41:55;7.47;;;6.70;;
20890;SDS011;10605;52.968;8.844;2023-08-30T13:44:25;10.90;;;6.38;;
20890;SDS011;10605;52.968;8.844;2023-08-30T13:47:03;11.00;;;6.60;;
20890;SDS011;10605;52.968;8.844;2023-08-30T13:49:35;8.23;;;6.72;;
20890;SDS011;10605;52.968;8.844;2023-08-30T13:52:10;15.80;;;7.28;;
20890;SDS011;10605;52.968;8.844;2023-08-30T13:54:36;7.28;;;6.10;;
20890;SDS011;10605;52.968;8.844;2023-08-30T13:57:21;8.68;;;6.97;;
20890;SDS011;10605;52.968;8.844;2023-08-30T14:00:05;7.25;;;6.55;;
20890;SDS011;10605;52.968;8.844;2023-08-30T14:02:37;8.13;;;7.20;;
20890;SDS011;10605;52.968;8.844;2023-08-30T14:05:13;10.05;;;7.15;;
20890;SDS011;10605;52.968;8.844;2023-08-30T14:07:39;9.68;;;7.72;;
20890;SDS011;10605;52.968;8.844;2023-08-30T14:10:10;10.88;;;8.20;;
20890;SDS011;10605;52.968;8.844;2023-08-30T14:12:36;9.70;;;8.80;;
20890;SDS011;10605;52.968;8.844;2023-08-30T14:15:05;10.25;;;9.45;;
20890;SDS011;10605;52.968;8.844;2023-08-30T14:17:31;11.60;;;10.43;;
20890;SDS011;10605;52.968;8.844;2023-08-30T14:19:57;18.67;;;11.20;;
20890;SDS011;10605;52.968;8.844;2023-08-30T14:22:26;12.07;;;10.80;;
20890;SDS011;10605;52.968;8.844;2023-08-30T14:24:54;13.90;;;11.93;;
20890;SDS011;10605;52.968;8.844;2023-08-30T14:27:25;12.32;;;10.50;;
20890;SDS011;10605;52.968;8.844;2023-08-30T14:29:56;11.55;;;10.48;;
20890;SDS011;10605;52.968;8.844;2023-08-30T14:32:29;11.82;;;10.55;;
20890;SDS011;10605;52.968;8.844;2023-08-30T14:35:04;11.68;;;10.57;;
20890;SDS011;10605;52.968;8.844;2023-08-30T14:37:33;13.15;;;11.85;;
20890;SDS011;10605;52.968;8.844;2023-08-30T14:40:01;13.93;;;12.45;;
20890;SDS011;10605;52.968;8.844;2023-08-30T14:42:29;15.95;;;14.25;;
20890;SDS011;10605;52.968;8.844;2023-08-30T14:44:57;15.48;;;13.98;;
20890;SDS011;10605;52.968;8.844;2023-08-30T14:47:26;15.45;;;13.88;;
20890;SDS011;10605;52.968;8.844;2023-08-30T14:50:05;17.80;;;15.82;;
20890;SDS011;10605;52.968;8.844;2023-08-30T14:52:31;18.13;;;16.00;;
20890;SDS011;10605;52.968;8.844;2023-08-30T14:54:57;15.68;;;14.02;;
20890;SDS011;10605;52.968;8.844;2023-08-30T14:57:22;20.40;;;16.70;;
20890;SDS011;10605;52.968;8.844;2023-08-30T14:59:50;17.88;;;15.75;;
20890;SDS011;10605;52.968;8.844;2023-08-30T15:02:15;16.35;;;14.77;;
20890;SDS011;10605;52.968;8.844;2023-08-30T15:04:41;17.60;;;15.63;;
20890;SDS011;10605;52.968;8.844;2023-08-30T15:07:07;19.85;;;15.20;;
20890;SDS011;10605;52.968;8.844;2023-08-30T15:09:33;16.20;;;14.43;;
20890;SDS011;10605;52.968;8.844;2023-08-30T15:11:58;15.98;;;14.68;;
20890;SDS011;10605;52.968;8.844;2023-08-30T15:14:24;15.23;;;13.63;;
20890;SDS011;10605;52.968;8.844;2023-08-30T15:16:50;15.15;;;13.55;;
20890;SDS011;10605;52.968;8.844;2023-08-30T15:19:16;17.05;;;14.10;;
20890;SDS011;10605;52.968;8.844;2023-08-30T15:21:42;15.07;;;13.55;;
20890;SDS011;10605;52.968;8.844;2023-08-30T15:24:08;14.90;;;13.48;;
20890;SDS011;10605;52.968;8.844;2023-08-30T15:26:34;13.55;;;12.48;;
20890;SDS011;10605;52.968;8.844;2023-08-30T15:28:59;12.80;;;11.65;;
20890;SDS011;10605;52.968;8.844;2023-08-30T15:31:25;12.77;;;11.60;;
20890;SDS011;10605;52.968;8.844;2023-08-30T15:33:51;12.60;;;11.52;;
20890;SDS011;10605;52.968;8.844;2023-08-30T15:36:17;10.82;;;9.95;;
20890;SDS011;10605;52.968;8.844;2023-08-30T15:38:42;11.07;;;10.13;;
20890;SDS011;10605;52.968;8.844;2023-08-30T15:41:10;11.75;;;10.73;;
20890;SDS011;10605;52.968;8.844;2023-08-30T15:43:42;10.63;;;9.73;;
20890;SDS011;10605;52.968;8.844;2023-08-30T15:46:08;10.45;;;9.60;;
20890;SDS011;10605;52.968;8.844;2023-08-30T15:48:35;9.13;;;8.43;;
20890;SDS011;10605;52.968;8.844;2023-08-30T15:51:02;8.07;;;7.57;;
20890;SDS011;10605;52.968;8.844;2023-08-30T15:53:28;9.73;;;8.85;;
20890;SDS011;10605;52.968;8.844;2023-08-30T15:55:54;8.18;;;7.57;;
20890;SDS011;10605;52.968;8.844;2023-08-30T15:58:20;9.38;;;8.65;;
20890;SDS011;10605;52.968;8.844;2023-08-30T16:00:46;8.00;;;7.45;;
20890;SDS011;10605;52.968;8.844;2023-08-30T16:03:14;9.75;;;9.05;;
20890;SDS011;10605;52.968;8.844;2023-08-30T16:05:43;9.10;;;8.40;;
20890;SDS011;10605;52.968;8.844;2023-08-30T16:08:10;8.82;;;8.23;;
20890;SDS011;10605;52.968;8.844;2023-08-30T16:10:38;8.70;;;8.10;;
20890;SDS011;10605;52.968;8.844;2023-08-30T16:13:06;8.77;;;8.07;;
20890;SDS011;10605;52.968;8.844;2023-08-30T16:15:33;11.88;;;8.20;;
20890;SDS011;10605;52.968;8.844;2023-08-30T16:18:02;9.43;;;8.73;;
20890;SDS011;10605;52.968;8.844;2023-08-30T16:20:28;9.43;;;8.82;;
20890;SDS011;10605;52.968;8.844;2023-08-30T16:22:56;10.68;;;9.88;;
20890;SDS011;10605;52.968;8.844;2023-08-30T16:25:24;10.25;;;9.32;;
20890;SDS011;10605;52.968;8.844;2023-08-30T16:27:52;10.00;;;9.27;;
20890;SDS011;10605;52.968;8.844;2023-08-30T16:30:18;10.73;;;9.70;;
20890;SDS011;10605;52.968;8.844;2023-08-30T16:32:44;10.43;;;9.65;;
20890;SDS011;10605;52.968;8.844;2023-08-30T16:35:09;10.27;;;9.48;;
20890;SDS011;10605;52.968;8.844;2023-08-30T16:37:35;9.85;;;9.15;;
20890;SDS011;10605;52.968;8.844;2023-08-30T16:40:01;9.82;;;8.95;;
20890;SDS011;10605;52.968;8.844;2023-08-30T16:42:28;10.82;;;9.80;;
20890;SDS011;10605;52.968;8.844;2023-08-30T16:44:53;9.93;;;9.15;;
20890;SDS011;10605;52.968;8.844;2023-08-30T16:47:19;10.80;;;10.00;;
20890;SDS011;10605;52.968;8.844;2023-08-30T16:49:55;11.85;;;10.98;;
20890;SDS011;10605;52.968;8.844;2023-08-30T16:52:24;11.35;;;10.60;;
20890;SDS011;10605;52.968;8.844;2023-08-30T16:54:54;12.43;;;11.38;;
20890;SDS011;10605;52.968;8.844;2023-08-30T16:57:23;13.20;;;12.23;;
20890;SDS011;10605;52.968;8.844;2023-08-30T16:59:53;12.70;;;11.40;;
20890;SDS011;10605;52.968;8.844;2023-08-30T17:02:19;13.88;;;12.57;;
20890;SDS011;10605;52.968;8.844;2023-08-30T17:04:45;13.95;;;12.95;;
20890;SDS011;10605;52.968;8.844;2023-08-30T17:07:10;16.17;;;14.75;;
20890;SDS011;10605;52.968;8.844;2023-08-30T17:09:36;16.02;;;14.75;;
20890;SDS011;10605;52.968;8.844;2023-08-30T17:12:03;14.65;;;13.55;;
20890;SDS011;10605;52.968;8.844;2023-08-30T17:14:30;16.83;;;15.30;;
20890;SDS011;10605;52.968;8.844;2023-08-30T17:16:56;15.75;;;14.38;;
20890;SDS011;10605;52.968;8.844;2023-08-30T17:19:23;16.73;;;15.32;;
20890;SDS011;10605;52.968;8.844;2023-08-30T17:21:50;17.35;;;15.50;;
20890;SDS011;10605;52.968;8.844;2023-08-30T17:24:15;15.88;;;14.52;;
20890;SDS011;10605;52.968;8.844;2023-08-30T17:26:41;16.00;;;14.75;;
20890;SDS011;10605;52.968;8.844;2023-08-30T17:29:07;15.70;;;14.50;;
20890;SDS011;10605;52.968;8.844;2023-08-30T17:31:33;15.93;;;14.63;;